| time (UTC) | temp F | wind direction | speed knots | gust knots | rain 1hr in | rain 24hr in | rain mn in | humidity % | barometer mb |
| 20260508130308 | 50 | 194 | 2.6 | 3.5 | 0.00 | 0.00 | 0.00 | 75 | 998.3 |
| 20260508125126 | 48 | 182 | 1.7 | 2.6 | 0.00 | 0.00 | 0.00 | 81 | 998.6 |
| 20260508123936 | 47 | 201 | 0.9 | 1.7 | 0.00 | 0.00 | 0.00 | 86 | 998.6 |
| 20260508123350 | 46 | 187 | 1.7 | 1.7 | 0.00 | 0.00 | 0.00 | 88 | 998.6 |
| 20260508122731 | 45 | 212 | 1.7 | 1.7 | 0.00 | 0.00 | 0.00 | 91 | 998.6 |
| 20260508122120 | 44 | 224 | 0.9 | 1.7 | 0.00 | 0.00 | 0.00 | 92 | 998.3 |
| 20260508121537 | 43 | 190 | 0.9 | 2.6 | 0.00 | 0.00 | 0.00 | 93 | 998.3 |
| 20260508120920 | 42 | 192 | 1.7 | 1.7 | 0.00 | 0.00 | 0.00 | 95 | 998.3 |
| 20260508115710 | 41 | 218 | 1.7 | 2.6 | 0.00 | 0.00 | 0.00 | 98 | 998.3 |
| 20260508115148 | 40 | 206 | 1.7 | 1.7 | 0.00 | 0.00 | 0.00 | 99 | 998.3 |
| 20260508114519 | 40 | 210 | 1.7 | 1.7 | 0.00 | 0.00 | 0.00 | 99 | 998.3 |
| 20260508113930 | 39 | 205 | 0.9 | 1.7 | 0.00 | 0.00 | 0.00 | 99 | 998.3 |
| 20260508113316 | 39 | 222 | 0.9 | 1.7 | 0.00 | 0.00 | 0.00 | 99 | 998.3 |
| 20260508112719 | 39 | 218 | 0.9 | 1.7 | 0.00 | 0.00 | 0.00 | 99 | 998.3 |
| 20260508112143 | 38 | 217 | 0.9 | 1.7 | 0.00 | 0.00 | 0.00 | 99 | 998.3 |
| 20260508111542 | 38 | 218 | 0.9 | 1.7 | 0.00 | 0.00 | 0.00 | 99 | 998.3 |
| 20260508110922 | 38 | 225 | 0.0 | 0.9 | 0.00 | 0.00 | 0.00 | 99 | 998.3 |
| 20260508110326 | 38 | 216 | 0.0 | 1.7 | 0.00 | 0.00 | 0.00 | 99 | 997.9 |
| 20260508105142 | 37 | 228 | 0.0 | 0.9 | 0.00 | 0.00 | 0.00 | 99 | 997.9 |
| 20260508103936 | 37 | 221 | 0.9 | 1.7 | 0.00 | 0.00 | 0.00 | 99 | 997.9 |
| 20260508103338 | 37 | 212 | 0.9 | 0.9 | 0.00 | 0.00 | 0.00 | 99 | 997.9 |
| 20260508102715 | 37 | 236 | 0.0 | 0.0 | 0.00 | 0.00 | 0.00 | 99 | 997.9 |
| 20260508102115 | 37 | 229 | 0.9 | 0.9 | 0.00 | 0.00 | 0.00 | 99 | 997.6 |
| 20260508101512 | 37 | 230 | 0.0 | 0.9 | 0.00 | 0.00 | 0.00 | 99 | 997.6 |
| 20260508100938 | 37 | 218 | 0.9 | 0.9 | 0.00 | 0.00 | 0.00 | 99 | 997.6 |
| 20260508100331 | 37 | 223 | 0.0 | 0.9 | 0.00 | 0.00 | 0.00 | 99 | 997.6 |
| 20260508095748 | 37 | 225 | 0.0 | 0.9 | 0.00 | 0.00 | 0.00 | 99 | 997.6 |
| 20260508095130 | 37 | 223 | 0.0 | 0.9 | 0.00 | 0.00 | 0.00 | 99 | 997.6 |
| 20260508094522 | 37 | 225 | 0.0 | 0.0 | 0.00 | 0.00 | 0.00 | 99 | 997.6 |
| 20260508093943 | 38 | 219 | 0.0 | 0.9 | 0.00 | 0.00 | 0.00 | 99 | 997.6 |
| 20260508092722 | 38 | 229 | 0.0 | 0.9 | 0.00 | 0.00 | 0.00 | 99 | 997.2 |
| 20260508092142 | 37 | 220 | 0.0 | 0.9 | 0.00 | 0.00 | 0.00 | 99 | 997.6 |
| 20260508091528 | 37 | 223 | 0.0 | 0.9 | 0.00 | 0.00 | 0.00 | 99 | 997.2 |
| 20260508090932 | 37 | 222 | 0.0 | 0.9 | 0.00 | 0.00 | 0.00 | 99 | 997.2 |
| 20260508085139 | 38 | 227 | 0.0 | 0.0 | 0.00 | 0.00 | 0.00 | 99 | 997.2 |
| 20260508084547 | 38 | 221 | 0.9 | 0.9 | 0.00 | 0.00 | 0.00 | 99 | 997.2 |
| 20260508083912 | 38 | 229 | 0.0 | 0.0 | 0.00 | 0.00 | 0.00 | 99 | 997.2 |
| 20260508083313 | 37 | 215 | 0.9 | 1.7 | 0.00 | 0.00 | 0.00 | 99 | 997.2 |
| 20260508082735 | 37 | 224 | 0.9 | 0.9 | 0.00 | 0.00 | 0.00 | 99 | 997.2 |
| 20260508082150 | 37 | 230 | 0.0 | 0.9 | 0.00 | 0.00 | 0.00 | 99 | 997.2 |
| 20260508081537 | 37 | 226 | 0.0 | 0.9 | 0.00 | 0.00 | 0.00 | 99 | 997.2 |
| 20260508080328 | 38 | 235 | 0.0 | 0.0 | 0.00 | 0.00 | 0.00 | 99 | 997.2 |
| 20260508075731 | 38 | 217 | 0.9 | 0.9 | 0.00 | 0.00 | 0.00 | 99 | 997.2 |
| 20260508075120 | 37 | 224 | 0.0 | 0.9 | 0.00 | 0.00 | 0.00 | 99 | 997.2 |
| 20260508074529 | 38 | 224 | 0.0 | 0.9 | 0.00 | 0.00 | 0.00 | 99 | 997.2 |
| 20260508073327 | 38 | 222 | 0.0 | 0.9 | 0.00 | 0.00 | 0.00 | 99 | 997.2 |
| 20260508072732 | 38 | 230 | 0.0 | 0.0 | 0.00 | 0.00 | 0.00 | 99 | 997.2 |
| 20260508072115 | 38 | 223 | 0.9 | 0.9 | 0.00 | 0.00 | 0.00 | 99 | 997.2 |
| 20260508071537 | 38 | 220 | 0.0 | 0.9 | 0.00 | 0.00 | 0.00 | 99 | 996.9 |
| 20260508070950 | 38 | 230 | 0.0 | 0.0 | 0.00 | 0.00 | 0.00 | 99 | 997.2 |
| 20260508070338 | 38 | 228 | 0.0 | 0.0 | 0.00 | 0.00 | 0.00 | 99 | 997.2 |
| 20260508065738 | 38 | 229 | 0.0 | 0.9 | 0.00 | 0.00 | 0.00 | 99 | 997.2 |
| 20260508065133 | 39 | 221 | 0.9 | 0.9 | 0.00 | 0.00 | 0.00 | 99 | 997.2 |
| 20260508064520 | 39 | 221 | 0.9 | 0.9 | 0.00 | 0.00 | 0.00 | 99 | 997.2 |
| 20260508063925 | 39 | 221 | 0.0 | 1.7 | 0.00 | 0.00 | 0.00 | 99 | 997.2 |
| 20260508063318 | 39 | 227 | 0.0 | 0.9 | 0.00 | 0.00 | 0.00 | 99 | 997.2 |
| 20260508062742 | 38 | 228 | 0.0 | 0.0 | 0.00 | 0.00 | 0.00 | 99 | 997.2 |
| 20260508062146 | 39 | 227 | 0.0 | 0.0 | 0.00 | 0.00 | 0.00 | 99 | 997.2 |
| 20260508061530 | 39 | 217 | 0.9 | 0.9 | 0.00 | 0.00 | 0.00 | 99 | 997.2 |
| 20260508060909 | 39 | 228 | 0.0 | 0.9 | 0.00 | 0.00 | 0.00 | 99 | 997.2 |
| 20260508060341 | 39 | 228 | 0.9 | 0.9 | 0.00 | 0.00 | 0.00 | 98 | 997.2 |
| 20260508055751 | 39 | 230 | 0.0 | 0.0 | 0.00 | 0.00 | 0.00 | 98 | 997.2 |
| 20260508055141 | 39 | 219 | 0.9 | 0.9 | 0.00 | 0.00 | 0.00 | 98 | 997.2 |
| 20260508054544 | 39 | 227 | 0.0 | 0.9 | 0.00 | 0.00 | 0.00 | 98 | 997.6 |
| 20260508052737 | 40 | 223 | 0.0 | 0.9 | 0.00 | 0.00 | 0.00 | 97 | 997.6 |
| 20260508052132 | 40 | 225 | 0.0 | 0.9 | 0.00 | 0.00 | 0.00 | 97 | 997.2 |
| 20260508051526 | 40 | 223 | 0.9 | 0.9 | 0.00 | 0.00 | 0.00 | 97 | 997.6 |
| 20260508050945 | 40 | 223 | 0.9 | 0.9 | 0.00 | 0.00 | 0.00 | 96 | 997.2 |
| 20260508050309 | 40 | 228 | 0.0 | 0.9 | 0.00 | 0.00 | 0.00 | 96 | 997.6 |
| 20260508045724 | 41 | 220 | 0.9 | 0.9 | 0.00 | 0.00 | 0.00 | 96 | 997.2 |
| 20260508045127 | 41 | 221 | 0.9 | 0.9 | 0.00 | 0.00 | 0.00 | 95 | 997.2 |
| 20260508044542 | 41 | 229 | 0.0 | 0.0 | 0.00 | 0.00 | 0.00 | 95 | 997.2 |
| 20260508043936 | 41 | 228 | 0.0 | 0.9 | 0.00 | 0.00 | 0.00 | 94 | 997.2 |
| 20260508043347 | 41 | 219 | 0.9 | 0.9 | 0.00 | 0.00 | 0.00 | 94 | 997.2 |
| 20260508042723 | 41 | 230 | 0.0 | 0.0 | 0.00 | 0.00 | 0.00 | 94 | 997.2 |
| 20260508042141 | 41 | 230 | 0.0 | 0.9 | 0.00 | 0.00 | 0.00 | 93 | 997.2 |
| 20260508041532 | 42 | 227 | 0.0 | 0.9 | 0.00 | 0.00 | 0.00 | 92 | 997.6 |
| 20260508040318 | 42 | 222 | 0.0 | 0.9 | 0.00 | 0.00 | 0.00 | 92 | 997.2 |
| 20260508035120 | 43 | 228 | 0.0 | 0.9 | 0.00 | 0.00 | 0.00 | 90 | 997.2 |
| 20260508034526 | 43 | 214 | 0.9 | 1.7 | 0.00 | 0.00 | 0.00 | 90 | 997.2 |
| 20260508033916 | 44 | 213 | 1.7 | 1.7 | 0.00 | 0.00 | 0.00 | 90 | 997.2 |
| 20260508033321 | 44 | 224 | 0.0 | 0.9 | 0.00 | 0.00 | 0.00 | 90 | 997.2 |
| 20260508032734 | 44 | 224 | 0.0 | 0.9 | 0.00 | 0.00 | 0.00 | 88 | 997.2 |
| 20260508032146 | 44 | 224 | 0.9 | 0.9 | 0.00 | 0.00 | 0.00 | 88 | 997.2 |
| 20260508031526 | 44 | 229 | 0.0 | 0.0 | 0.00 | 0.00 | 0.00 | 89 | 997.2 |
| 20260508030931 | 44 | 221 | 0.9 | 0.9 | 0.00 | 0.00 | 0.00 | 88 | 997.2 |
| 20260508030311 | 44 | 223 | 0.9 | 0.9 | 0.00 | 0.00 | 0.00 | 88 | 997.2 |
| 20260508025719 | 45 | 224 | 0.9 | 0.9 | 0.00 | 0.00 | 0.00 | 87 | 997.2 |
| 20260508025114 | 45 | 232 | 0.0 | 0.9 | 0.00 | 0.00 | 0.00 | 86 | 997.2 |
| 20260508024525 | 45 | 229 | 0.0 | 0.9 | 0.00 | 0.00 | 0.00 | 85 | 996.9 |
| 20260508023946 | 46 | 229 | 0.0 | 0.9 | 0.00 | 0.00 | 0.00 | 84 | 996.9 |
| 20260508023341 | 46 | 224 | 0.0 | 0.9 | 0.00 | 0.00 | 0.00 | 83 | 996.9 |
| 20260508022723 | 46 | 224 | 0.0 | 0.9 | 0.00 | 0.00 | 0.00 | 83 | 996.6 |
| 20260508021515 | 47 | 229 | 0.0 | 0.9 | 0.00 | 0.00 | 0.00 | 81 | 996.6 |
| 20260508020945 | 47 | 222 | 0.9 | 0.9 | 0.00 | 0.00 | 0.00 | 81 | 996.6 |
| 20260508020349 | 47 | 226 | 0.0 | 0.9 | 0.00 | 0.00 | 0.00 | 80 | 996.2 |
| 20260508015738 | 48 | 224 | 0.9 | 0.9 | 0.00 | 0.00 | 0.00 | 78 | 996.2 |
| 20260508015145 | 48 | 222 | 0.9 | 0.9 | 0.00 | 0.00 | 0.00 | 78 | 996.2 |
| 20260508014517 | 49 | 229 | 0.0 | 0.0 | 0.00 | 0.00 | 0.00 | 78 | 996.2 |
| 20260508012725 | 50 | 232 | 0.0 | 0.0 | 0.00 | 0.00 | 0.00 | 75 | 996.2 |
| 20260508011528 | 51 | 234 | 0.0 | 0.0 | 0.00 | 0.00 | 0.00 | 74 | 995.9 |
| 20260508010935 | 52 | 233 | 0.0 | 0.9 | 0.00 | 0.00 | 0.00 | 72 | 995.5 |
| 20260508010349 | 52 | 235 | 0.0 | 0.9 | 0.00 | 0.00 | 0.00 | 70 | 995.5 |
| 20260508005736 | 53 | 237 | 0.0 | 0.9 | 0.00 | 0.00 | 0.00 | 67 | 995.5 |
| 20260508003908 | 56 | 243 | 0.9 | 1.7 | 0.00 | 0.00 | 0.00 | 52 | 995.5 |
| 20260508003340 | 57 | 236 | 0.9 | 0.9 | 0.00 | 0.00 | 0.00 | 59 | 995.2 |
| 20260508002734 | 58 | 246 | 0.9 | 1.7 | 0.00 | 0.00 | 0.00 | 58 | 995.5 |
| 20260508002110 | 58 | 241 | 0.9 | 0.9 | 0.00 | 0.00 | 0.00 | 47 | 995.2 |
| 20260508001532 | 59 | 238 | 0.9 | 1.7 | 0.00 | 0.00 | 0.00 | 42 | 995.2 |
| 20260508000949 | 59 | 239 | 0.9 | 1.7 | 0.00 | 0.00 | 0.00 | 44 | 994.9 |
| 20260508000335 | 59 | 238 | 0.9 | 2.6 | 0.00 | 0.00 | 0.00 | 45 | 995.2 |
| 20260507235747 | 60 | 247 | 2.6 | 3.5 | 0.00 | 0.00 | 0.00 | 43 | 995.2 |
| 20260507235119 | 60 | 239 | 2.6 | 3.5 | 0.00 | 0.00 | 0.00 | 41 | 994.9 |
| 20260507234551 | 60 | 240 | 1.7 | 2.6 | 0.00 | 0.00 | 0.00 | 40 | 994.5 |
| 20260507233938 | 61 | 228 | 1.7 | 2.6 | 0.00 | 0.00 | 0.00 | 38 | 994.9 |
| 20260507233347 | 61 | 254 | 1.7 | 3.5 | 0.00 | 0.00 | 0.00 | 39 | 994.5 |
| 20260507231535 | 61 | 273 | 6.1 | 9.6 | 0.00 | 0.00 | 0.00 | 37 | 994.5 |
| 20260507225744 | 62 | 245 | 1.7 | 5.2 | 0.00 | 0.00 | 0.00 | 39 | 994.9 |
| 20260507225120 | 62 | 273 | 3.5 | 7.8 | 0.00 | 0.00 | 0.00 | 37 | 994.5 |
| 20260507224527 | 62 | 236 | 2.6 | 5.2 | 0.00 | 0.00 | 0.00 | 39 | 994.5 |
| 20260507223918 | 62 | 248 | 2.6 | 5.2 | 0.00 | 0.00 | 0.00 | 37 | 994.5 |
| 20260507223338 | 62 | 237 | 4.3 | 5.2 | 0.00 | 0.00 | 0.00 | 40 | 994.5 |
| 20260507222719 | 62 | 242 | 2.6 | 6.1 | 0.00 | 0.00 | 0.00 | 39 | 994.5 |
| 20260507221516 | 62 | 256 | 1.7 | 3.5 | 0.00 | 0.00 | 0.00 | 42 | 994.5 |
| 20260507220312 | 62 | 243 | 0.9 | 1.7 | 0.00 | 0.00 | 0.00 | 41 | 994.2 |
| 20260507215738 | 62 | 240 | 2.6 | 2.6 | 0.00 | 0.00 | 0.00 | 44 | 993.9 |
| 20260507215144 | 62 | 271 | 2.6 | 6.1 | 0.00 | 0.00 | 0.00 | 42 | 994.2 |
| 20260507213944 | 62 | 235 | 1.7 | 3.5 | 0.00 | 0.00 | 0.00 | 42 | 993.9 |
| 20260507212737 | 63 | 243 | 1.7 | 2.6 | 0.00 | 0.00 | 0.00 | 44 | 993.9 |
| 20260507211532 | 62 | 246 | 1.7 | 2.6 | 0.00 | 0.00 | 0.00 | 43 | 993.9 |
| 20260507210928 | 63 | 259 | 2.6 | 2.6 | 0.00 | 0.00 | 0.00 | 42 | 993.9 |
| 20260507210344 | 62 | 247 | 2.6 | 2.6 | 0.00 | 0.00 | 0.00 | 43 | 993.5 |
| 20260507204547 | 62 | 229 | 1.7 | 3.5 | 0.00 | 0.00 | 0.00 | 46 | 993.9 |
| 20260507202737 | 63 | 269 | 4.3 | 5.2 | 0.00 | 0.00 | 0.00 | 45 | 993.5 |
| 20260507202152 | 62 | 249 | 0.9 | 6.1 | 0.00 | 0.00 | 0.00 | 45 | 993.5 |
| 20260507201538 | 63 | 200 | 5.2 | 7.8 | 0.00 | 0.00 | 0.00 | 41 | 993.5 |
| 20260507200938 | 63 | 251 | 3.5 | 5.2 | 0.00 | 0.00 | 0.00 | 44 | 993.9 |
| 20260507195752 | 63 | 245 | 1.7 | 1.7 | 0.00 | 0.00 | 0.00 | 44 | 993.5 |
| 20260507195151 | 64 | 251 | 5.2 | 7.0 | 0.00 | 0.00 | 0.00 | 45 | 993.9 |
| 20260507194514 | 64 | 258 | 1.7 | 3.5 | 0.00 | 0.00 | 0.00 | 42 | 993.5 |
| 20260507193951 | 63 | 248 | 1.7 | 5.2 | 0.00 | 0.00 | 0.00 | 43 | 993.5 |
| 20260507192732 | 64 | 230 | 2.6 | 2.6 | 0.00 | 0.00 | 0.00 | 44 | 993.9 |
| 20260507192146 | 63 | 226 | 1.7 | 3.5 | 0.00 | 0.00 | 0.00 | 49 | 993.9 |
| 20260507191535 | 61 | 238 | 1.7 | 1.7 | 0.00 | 0.00 | 0.00 | 47 | 994.2 |
| 20260507190936 | 62 | 252 | 1.7 | 1.7 | 0.00 | 0.00 | 0.00 | 47 | 994.2 |
| 20260507185724 | 62 | 194 | 3.5 | 6.1 | 0.00 | 0.00 | 0.00 | 48 | 994.5 |
| 20260507185150 | 62 | 234 | 0.9 | 3.5 | 0.00 | 0.00 | 0.00 | 46 | 994.2 |
| 20260507184549 | 61 | 231 | 0.9 | 2.6 | 0.00 | 0.00 | 0.00 | 54 | 994.2 |
| 20260507183952 | 62 | 252 | 5.2 | 6.1 | 0.00 | 0.00 | 0.00 | 48 | 994.5 |
| 20260507183308 | 62 | 232 | 0.0 | 2.6 | 0.00 | 0.00 | 0.00 | 51 | 994.5 |
| 20260507182714 | 61 | 233 | 1.7 | 3.5 | 0.00 | 0.00 | 0.00 | 52 | 994.5 |
| 20260507182150 | 62 | 258 | 1.7 | 2.6 | 0.00 | 0.00 | 0.00 | 50 | 994.5 |
| 20260507181510 | 61 | 236 | 0.0 | 1.7 | 0.00 | 0.00 | 0.00 | 51 | 994.2 |
| 20260507180928 | 60 | 224 | 1.7 | 5.2 | 0.00 | 0.00 | 0.00 | 55 | 994.5 |
| 20260507180324 | 60 | 246 | 1.7 | 2.6 | 0.00 | 0.00 | 0.00 | 55 | 994.5 |
| 20260507174520 | 60 | 238 | 0.9 | 1.7 | 0.00 | 0.00 | 0.00 | 56 | 994.5 |
| 20260507173945 | 60 | 250 | 1.7 | 2.6 | 0.00 | 0.00 | 0.00 | 54 | 994.9 |
| 20260507172732 | 61 | 244 | 2.6 | 3.5 | 0.00 | 0.00 | 0.00 | 54 | 994.9 |
| 20260507172129 | 62 | 173 | 1.7 | 3.5 | 0.00 | 0.00 | 0.00 | 52 | 994.5 |
| 20260507170911 | 61 | 250 | 0.9 | 3.5 | 0.00 | 0.00 | 0.00 | 55 | 995.2 |
| 20260507170321 | 61 | 247 | 1.7 | 2.6 | 0.00 | 0.00 | 0.00 | 56 | 995.2 |
| 20260507165750 | 61 | 260 | 0.9 | 1.7 | 0.00 | 0.00 | 0.00 | 53 | 995.2 |
| 20260507165135 | 60 | 251 | 1.7 | 3.5 | 0.00 | 0.00 | 0.00 | 56 | 995.2 |
| 20260507163923 | 60 | 253 | 2.6 | 3.5 | 0.00 | 0.00 | 0.00 | 53 | 995.5 |
| 20260507162722 | 61 | 237 | 0.0 | 0.9 | 0.00 | 0.00 | 0.00 | 57 | 995.5 |
| 20260507162152 | 60 | 240 | 0.9 | 1.7 | 0.00 | 0.00 | 0.00 | 57 | 995.5 |
| 20260507161555 | 61 | 174 | 4.3 | 7.0 | 0.00 | 0.00 | 0.00 | 51 | 995.5 |
| 20260507160923 | 60 | 228 | 1.7 | 2.6 | 0.00 | 0.00 | 0.00 | 55 | 995.5 |
| 20260507160346 | 61 | 251 | 2.6 | 3.5 | 0.00 | 0.00 | 0.00 | 56 | 995.5 |
| 20260507155731 | 58 | 1 | 0.9 | 3.5 | 0.00 | 0.00 | 0.00 | 58 | 995.5 |
| 20260507155123 | 58 | 254 | 4.3 | 5.2 | 0.00 | 0.00 | 0.00 | 58 | 995.5 |
| 20260507154519 | 58 | 244 | 0.9 | 1.7 | 0.00 | 0.00 | 0.00 | 58 | 995.5 |
| 20260507153911 | 58 | 240 | 1.7 | 1.7 | 0.00 | 0.00 | 0.00 | 63 | 995.5 |
| 20260507153316 | 58 | 228 | 0.0 | 0.9 | 0.00 | 0.00 | 0.00 | 61 | 995.5 |
| 20260507152750 | 58 | 236 | 0.0 | 0.9 | 0.00 | 0.00 | 0.00 | 59 | 995.5 |
| 20260507151534 | 58 | 255 | 1.7 | 2.6 | 0.00 | 0.00 | 0.00 | 57 | 995.5 |
| 20260507150347 | 58 | 244 | 0.9 | 0.9 | 0.00 | 0.00 | 0.00 | 66 | 995.5 |
| 20260507145715 | 58 | 235 | 0.0 | 0.9 | 0.00 | 0.00 | 0.00 | 61 | 995.9 |
| 20260507145111 | 57 | 240 | 0.0 | 0.9 | 0.00 | 0.00 | 0.00 | 64 | 995.5 |
| 20260507144515 | 56 | 240 | 0.0 | 0.9 | 0.00 | 0.00 | 0.00 | 63 | 995.5 |
| 20260507143939 | 56 | 245 | 0.9 | 0.9 | 0.00 | 0.00 | 0.00 | 64 | 995.9 |
| 20260507143320 | 56 | 248 | 0.9 | 0.9 | 0.00 | 0.00 | 0.00 | 62 | 995.9 |
| 20260507142123 | 56 | 235 | 0.0 | 2.6 | 0.00 | 0.00 | 0.00 | 61 | 995.9 |
| 20260507141518 | 57 | 250 | 0.9 | 1.7 | 0.00 | 0.00 | 0.00 | 65 | 995.9 |
| 20260507140926 | 58 | 240 | 0.9 | 0.9 | 0.00 | 0.00 | 0.00 | 62 | 995.9 |
| 20260507140342 | 57 | 240 | 0.0 | 0.9 | 0.00 | 0.00 | 0.00 | 65 | 996.2 |
| 20260507135144 | 56 | 236 | 0.0 | 0.9 | 0.00 | 0.00 | 0.00 | 72 | 996.2 |
| 20260507134519 | 56 | 237 | 0.0 | 0.9 | 0.00 | 0.00 | 0.00 | 70 | 996.2 |
| 20260507133319 | 56 | 244 | 0.9 | 1.7 | 0.00 | 0.00 | 0.00 | 68 | 996.2 |
| 20260507132743 | 55 | 335 | 1.7 | 3.5 | 0.00 | 0.00 | 0.00 | 68 | 996.6 |
| 20260507132122 | 55 | 246 | 0.9 | 0.9 | 0.00 | 0.00 | 0.00 | 71 | 996.6 |